Time;durP1;ratioP1;P1;durP2;ratioP2;P2;SDS_P1;SDS_P2;PMS_P1;PMS_P2;Temp;Humidity;BMP_temperature;BMP_pressure;BME280_temperature;BME280_humidity;BME280_pressure;Samples;Min_cycle;Max_cycle;Signal;HPM_P1;HPM_P2
2023/01/01 00:01:29;;;;;;;;;;;;;;;9.16;100.00;96821.22;5083701;28;19999;-76
2023/01/01 00:03:56;;;;;;;;;;;;;;;9.13;100.00;96827.66;5076823;28;19951;-75
2023/01/01 00:06:22;;;;;;;;;;;;;;;9.10;100.00;96829.84;5078285;28;19963;-75
2023/01/01 00:10:26;;;;;;;;;;;;;;;9.05;100.00;96825.22;5080513;28;20327;-75
2023/01/01 00:11:34;;;;;;;;;;;;;;;9.03;100.00;96831.63;5078814;28;20410;-76
2023/01/01 00:14:00;;;;;;;;;;;;;;;8.98;100.00;96827.00;5076482;28;20049;-75
2023/01/01 00:16:26;;;;;;;;;;;;;;;8.94;100.00;96825.78;5076559;28;19958;-75
2023/01/01 00:18:51;;;;;;;;;;;;;;;8.90;100.00;96821.94;5076489;28;20001;-75
2023/01/01 00:21:17;;;;;;;;;;;;;;;8.87;100.00;96823.16;5076642;28;19950;-76
2023/01/01 00:23:43;;;;;;;;;;;;;;;8.86;100.00;96823.34;5078651;28;19953;-76
2023/01/01 00:26:13;;;;;;;;;;;;;;;8.83;100.00;96826.38;5057420;28;20000;-79
2023/01/01 00:28:39;;;;;;;;;;;;;;;8.81;100.00;96825.75;5083225;28;19984;-75
2023/01/01 00:31:06;;;;;;;;;;;;;;;8.77;100.00;96820.13;5076383;28;19997;-75
2023/01/01 00:33:32;;;;;;;;;;;;;;;8.74;100.00;96818.69;5075619;28;20067;-74
2023/01/01 00:36:04;;;;;;;;;;;;;;;8.72;100.00;96814.69;5076224;28;19962;-75
2023/01/01 00:38:31;;;;;;;;;;;;;;;8.69;100.00;96810.66;5083259;28;19954;-77
2023/01/01 00:40:57;;;;;;;;;;;;;;;8.65;100.00;96819.06;5076025;28;20342;-74
2023/01/01 00:43:23;;;;;;;;;;;;;;;8.61;100.00;96808.22;5059200;28;19954;-75
2023/01/01 00:45:52;;;;;;;;;;;;;;;8.60;100.00;96797.94;5075895;28;20342;-75
2023/01/01 00:48:18;;;;;;;;;;;;;;;8.58;100.00;96798.13;5084301;28;20363;-74
2023/01/01 00:50:44;;;;;;;;;;;;;;;8.56;100.00;96792.28;5075776;28;19961;-75
2023/01/01 00:53:10;;;;;;;;;;;;;;;8.54;100.00;96800.31;5070866;28;19950;-75
2023/01/01 00:55:38;;;;;;;;;;;;;;;8.53;100.00;96798.72;5085798;28;19988;-75
2023/01/01 00:58:04;;;;;;;;;;;;;;;8.50;100.00;96785.22;5076951;28;19955;-75
2023/01/01 01:00:30;;;;;;;;;;;;;;;8.50;100.00;96798.31;5074760;28;20395;-74
2023/01/01 01:02:56;;;;;;;;;;;;;;;8.48;100.00;96798.53;5074711;28;19998;-75
2023/01/01 01:05:21;;;;;;;;;;;;;;;8.50;100.00;96798.31;5089304;28;19951;-75
2023/01/01 01:07:47;;;;;;;;;;;;;;;8.47;100.00;96796.91;5075442;28;20406;-75
2023/01/01 01:10:13;;;;;;;;;;;;;;;8.46;100.00;96802.31;5077537;28;19967;-75
2023/01/01 01:12:39;;;;;;;;;;;;;;;8.43;100.00;96793.06;5075463;28;20411;-74
2023/01/01 01:15:06;;;;;;;;;;;;;;;8.40;100.00;96800.44;5082029;28;20315;-74
2023/01/01 01:17:32;;;;;;;;;;;;;;;8.36;100.00;96789.59;5075464;28;19951;-76
2023/01/01 01:19:58;;;;;;;;;;;;;;;8.34;100.00;96794.22;5079675;28;19965;-75
2023/01/01 01:22:24;;;;;;;;;;;;;;;8.32;100.00;96801.44;5075562;28;20389;-75
2023/01/01 01:24:50;;;;;;;;;;;;;;;8.31;100.00;96800.59;5083622;28;19961;-74
2023/01/01 01:27:16;;;;;;;;;;;;;;;8.28;100.00;96800.22;5077290;28;19995;-74
2023/01/01 01:29:42;;;;;;;;;;;;;;;8.26;100.00;96808.22;5073956;28;19963;-74
2023/01/01 01:32:09;;;;;;;;;;;;;;;8.26;100.00;96803.00;5075057;28;20461;-75
2023/01/01 01:34:35;;;;;;;;;;;;;;;8.26;100.00;96803.00;5074024;28;20312;-75
2023/01/01 01:37:01;;;;;;;;;;;;;;;8.24;100.00;96802.41;5075134;28;19989;-74
2023/01/01 01:39:27;;;;;;;;;;;;;;;8.24;100.00;96809.44;5073628;28;20390;-75
2023/01/01 01:41:53;;;;;;;;;;;;;;;8.25;100.00;96817.09;5074065;28;19966;-74
2023/01/01 01:44:37;;;;;;;;;;;;;;;8.26;100.00;96816.06;5074626;28;20307;-75
2023/01/01 01:47:03;;;;;;;;;;;;;;;8.25;100.00;96817.09;5073724;28;19962;-75
2023/01/01 01:49:30;;;;;;;;;;;;;;;8.27;100.00;96825.53;5080634;28;20067;-74
2023/01/01 01:51:58;;;;;;;;;;;;;;;8.28;100.00;96821.13;5076107;28;20433;-74
2023/01/01 01:54:26;;;;;;;;;;;;;;;8.29;100.00;96817.47;5074905;28;19949;-74
2023/01/01 01:57:18;;;;;;;;;;;;;;;8.27;100.00;96803.81;5076081;28;19960;-74
2023/01/01 01:59:47;;;;;;;;;;;;;;;8.26;100.00;96808.22;5081816;28;19986;-74
2023/01/01 02:02:25;;;;;;;;;;;;;;;8.25;100.00;96813.66;5074358;28;19957;-75
2023/01/01 02:04:52;;;;;;;;;;;;;;;8.21;100.00;96805.41;5061727;28;19947;-74
2023/01/01 02:07:19;;;;;;;;;;;;;;;8.16;100.00;96814.81;5075639;28;19975;-74
2023/01/01 02:09:45;;;;;;;;;;;;;;;8.10;100.00;96813.78;5075316;28;19949;-74
2023/01/01 02:12:10;;;;;;;;;;;;;;;8.06;100.00;96813.38;5072455;28;20002;-75
2023/01/01 02:14:36;;;;;;;;;;;;;;;8.03;100.00;96813.75;5073582;28;19952;-74
2023/01/01 02:17:08;;;;;;;;;;;;;;;7.97;100.00;96827.56;5073283;28;19952;-75
2023/01/01 02:19:33;;;;;;;;;;;;;;;7.92;100.00;96835.97;5078126;28;19949;-75
2023/01/01 02:22:10;;;;;;;;;;;;;;;7.89;100.00;96833.72;5073414;28;20337;-74
2023/01/01 02:24:45;;;;;;;;;;;;;;;7.83;100.00;96826.69;5074329;28;19954;-74
2023/01/01 02:27:26;;;;;;;;;;;;;;;7.78;100.00;96833.47;5073044;28;19949;-73
2023/01/01 02:29:54;;;;;;;;;;;;;;;7.74;100.00;96817.38;5063512;28;20444;-75
2023/01/01 02:32:23;;;;;;;;;;;;;;;7.70;100.00;96813.53;5072645;28;19952;-75
2023/01/01 02:34:49;;;;;;;;;;;;;;;7.69;100.00;96802.28;5073117;28;19963;-74
2023/01/01 02:37:17;;;;;;;;;;;;;;;7.69;100.00;96802.28;5075527;28;19975;-76
2023/01/01 02:40:03;;;;;;;;;;;;;;;7.68;100.00;96799.84;5088441;28;20070;-74
2023/01/01 02:42:29;;;;;;;;;;;;;;;7.68;100.00;96805.09;5058529;28;19961;-76
2023/01/01 02:44:57;;;;;;;;;;;;;;;7.66;100.00;96815.69;5073745;28;19953;-74
2023/01/01 02:47:23;;;;;;;;;;;;;;;7.66;100.00;96814.91;5076212;28;19948;-75
2023/01/01 02:49:57;;;;;;;;;;;;;;;7.64;100.00;96809.91;5082614;28;20006;-74
2023/01/01 02:52:35;;;;;;;;;;;;;;;7.65;100.00;96813.31;5075742;28;19954;-74
2023/01/01 02:55:06;;;;;;;;;;;;;;;7.65;100.00;96824.53;5073894;28;20324;-73
2023/01/01 02:57:53;;;;;;;;;;;;;;;7.65;100.00;96816.72;5072847;28;19958;-74
2023/01/01 03:00:30;;;;;;;;;;;;;;;7.66;100.00;96817.50;5075336;28;19958;-74
2023/01/01 03:03:14;;;;;;;;;;;;;;;7.65;100.00;96810.69;5072452;28;20328;-74
2023/01/01 03:06:21;;;;;;;;;;;;;;;7.62;100.00;96806.66;5073615;28;19948;-74
2023/01/01 03:08:32;;;;;;;;;;;;;;;7.57;100.00;96811.63;5079971;28;19965;-75
2023/01/01 03:11:03;;;;;;;;;;;;;;;7.61;100.00;96801.63;5073052;28;19949;-74
2023/01/01 03:13:40;;;;;;;;;;;;;;;7.61;100.00;96807.66;5054379;28;19962;-75
2023/01/01 03:16:25;;;;;;;;;;;;;;;7.57;100.00;96803.00;5073257;28;19957;-74
2023/01/01 03:19:09;;;;;;;;;;;;;;;7.51;100.00;96805.34;5080677;28;19959;-75
2023/01/01 03:21:40;;;;;;;;;;;;;;;7.49;100.00;96807.34;5063150;28;20324;-76
2023/01/01 03:24:08;;;;;;;;;;;;;;;7.47;100.00;96811.16;5073279;28;20344;-74
2023/01/01 03:26:35;;;;;;;;;;;;;;;7.46;100.00;96822.59;5077187;28;19955;-77
2023/01/01 03:29:03;;;;;;;;;;;;;;;7.44;100.00;96817.56;5073586;28;20419;-74
2023/01/01 03:31:30;;;;;;;;;;;;;;;7.46;100.00;96827.81;5072451;28;19959;-75
2023/01/01 03:34:00;;;;;;;;;;;;;;;7.45;100.00;96821.78;5073558;28;19956;-74
2023/01/01 03:36:32;;;;;;;;;;;;;;;7.47;100.00;96827.59;5080678;28;19974;-75
2023/01/01 03:39:01;;;;;;;;;;;;;;;7.47;100.00;96830.22;5077294;28;20327;-75
2023/01/01 03:41:37;;;;;;;;;;;;;;;7.47;100.00;96830.22;5072411;28;19954;-74
2023/01/01 03:44:17;;;;;;;;;;;;;;;7.48;100.00;96829.25;5073142;28;19957;-74
2023/01/01 03:46:43;;;;;;;;;;;;;;;7.49;100.00;96832.66;5084623;28;20332;-74
2023/01/01 03:49:10;;;;;;;;;;;;;;;7.48;100.00;96836.25;5079993;28;19961;-75
2023/01/01 03:51:48;;;;;;;;;;;;;;;7.49;100.00;96835.25;5072072;28;19962;-75
2023/01/01 03:54:20;;;;;;;;;;;;;;;7.51;100.00;96835.88;5061858;28;19958;-74
2023/01/01 03:56:51;;;;;;;;;;;;;;;7.53;100.00;96833.88;5073540;28;19951;-74
2023/01/01 03:59:22;;;;;;;;;;;;;;;7.57;100.00;96839.53;5073319;28;19959;-74
2023/01/01 04:01:52;;;;;;;;;;;;;;;7.58;100.00;96843.75;5071747;28;19951;-74
2023/01/01 04:04:18;;;;;;;;;;;;;;;7.59;100.00;96843.56;5073176;28;20412;-75
2023/01/01 04:06:44;;;;;;;;;;;;;;;7.59;100.00;96840.16;5083782;28;19962;-75
2023/01/01 04:09:15;;;;;;;;;;;;;;;7.63;100.00;96834.38;5085180;28;19977;-74
2023/01/01 04:14:34;;;;;;;;;;;;;;;7.65;100.00;96835.00;5076624;28;19958;-74
2023/01/01 04:17:01;;;;;;;;;;;;;;;7.73;100.00;96841.88;5078225;28;19965;-74
2023/01/01 04:19:27;;;;;;;;;;;;;;;7.75;100.00;96826.84;5080431;28;19951;-74
2023/01/01 04:21:53;;;;;;;;;;;;;;;7.81;100.00;96825.25;5064503;28;19953;-74
2023/01/01 04:24:19;;;;;;;;;;;;;;;7.84;100.00;96827.50;5079823;28;19951;-74
2023/01/01 04:26:45;;;;;;;;;;;;;;;7.83;100.00;96828.47;5074795;28;19957;-76
2023/01/01 04:29:11;;;;;;;;;;;;;;;7.84;100.00;96827.50;5077289;28;20335;-74
2023/01/01 04:31:37;;;;;;;;;;;;;;;7.85;100.00;96819.47;5074818;28;19951;-74
2023/01/01 04:34:03;;;;;;;;;;;;;;;7.87;100.00;96820.09;5076278;28;19961;-74
2023/01/01 04:36:29;;;;;;;;;;;;;;;7.89;100.00;96825.91;5075215;28;20029;-74
2023/01/01 04:38:55;;;;;;;;;;;;;;;7.91;100.00;96830.94;5062458;28;19963;-74
2023/01/01 04:41:21;;;;;;;;;;;;;;;7.92;100.00;96832.56;5079310;28;19967;-74
2023/01/01 04:43:50;;;;;;;;;;;;;;;7.93;100.00;96839.38;5058266;28;20037;-74
2023/01/01 04:46:17;;;;;;;;;;;;;;;7.96;100.00;96825.97;5068784;28;19962;-74
2023/01/01 04:48:43;;;;;;;;;;;;;;;7.98;100.00;96829.19;5082435;28;19980;-74
2023/01/01 04:51:10;;;;;;;;;;;;;;;8.01;100.00;96831.41;5074524;28;19958;-74
2023/01/01 04:53:36;;;;;;;;;;;;;;;8.08;100.00;96834.88;5075761;28;20325;-74
2023/01/01 04:56:12;;;;;;;;;;;;;;;8.09;100.00;96831.25;5075343;28;19948;-74
2023/01/01 04:58:39;;;;;;;;;;;;;;;8.07;100.00;96835.06;5077246;28;19958;-74
2023/01/01 05:01:05;;;;;;;;;;;;;;;8.04;100.00;96838.03;5057974;28;19953;-74
2023/01/01 05:03:32;;;;;;;;;;;;;;;8.13;100.00;96844.75;5087460;28;19952;-73
2023/01/01 05:06:08;;;;;;;;;;;;;;;8.23;100.00;96860.06;5081153;28;19966;-73
2023/01/01 05:08:35;;;;;;;;;;;;;;;8.24;100.00;96859.88;5081668;28;19966;-74
2023/01/01 05:11:01;;;;;;;;;;;;;;;8.24;100.00;96864.31;5073898;28;20293;-74
2023/01/01 05:13:27;;;;;;;;;;;;;;;8.21;100.00;96867.28;5075575;28;19948;-74
2023/01/01 05:15:53;;;;;;;;;;;;;;;8.17;100.00;96876.50;5074372;28;19957;-74
2023/01/01 05:18:19;;;;;;;;;;;;;;;8.14;100.00;96869.84;5083165;28;20038;-74
2023/01/01 05:20:45;;;;;;;;;;;;;;;8.10;100.00;96879.88;5077360;28;19960;-74
2023/01/01 05:23:10;;;;;;;;;;;;;;;8.09;100.00;96883.50;5074804;28;19988;-75
2023/01/01 05:25:36;;;;;;;;;;;;;;;8.12;100.00;96890.94;5077066;28;19960;-76
2023/01/01 05:28:02;;;;;;;;;;;;;;;8.13;100.00;96881.31;5081703;28;19989;-76
2023/01/01 05:30:29;;;;;;;;;;;;;;;8.12;100.00;96890.94;5081706;28;19989;-75
2023/01/01 05:32:56;;;;;;;;;;;;;;;8.11;100.00;96889.34;5075435;28;19965;-74
2023/01/01 05:35:21;;;;;;;;;;;;;;;8.09;100.00;96891.34;5078223;28;20436;-74
2023/01/01 05:37:47;;;;;;;;;;;;;;;8.10;100.00;96884.31;5084284;28;19977;-74
2023/01/01 05:40:13;;;;;;;;;;;;;;;8.09;100.00;96891.34;5077490;28;19952;-76
2023/01/01 05:42:39;;;;;;;;;;;;;;;8.07;100.00;96895.94;5056822;28;19967;-75
2023/01/01 05:45:05;;;;;;;;;;;;;;;8.09;100.00;96895.75;5073939;28;20308;-75
2023/01/01 05:47:31;;;;;;;;;;;;;;;8.11;100.00;96896.38;5076220;28;20323;-75
2023/01/01 05:49:57;;;;;;;;;;;;;;;8.08;100.00;96900.19;5073644;28;19966;-78
2023/01/01 05:52:23;;;;;;;;;;;;;;;8.09;100.00;96898.38;5074753;28;20317;-75
2023/01/01 05:54:49;;;;;;;;;;;;;;;8.08;100.00;96904.59;5055773;28;19960;-74
2023/01/01 05:57:14;;;;;;;;;;;;;;;8.05;100.00;96903.16;5078271;28;19959;-75
2023/01/01 05:59:40;;;;;;;;;;;;;;;8.04;100.00;96900.72;5064315;28;20001;-75
2023/01/01 06:02:06;;;;;;;;;;;;;;;8.04;100.00;96908.56;5074714;28;20046;-74
2023/01/01 06:04:32;;;;;;;;;;;;;;;8.04;100.00;96911.19;5073637;28;20370;-76
2023/01/01 06:06:58;;;;;;;;;;;;;;;8.04;100.00;96905.97;5073844;28;19983;-75
2023/01/01 06:09:24;;;;;;;;;;;;;;;8.05;100.00;96910.19;5073345;28;20039;-77
2023/01/01 06:11:50;;;;;;;;;;;;;;;8.03;100.00;96909.59;5065464;28;19962;-74
2023/01/01 06:14:15;;;;;;;;;;;;;;;8.04;100.00;96913.78;5072491;28;20419;-75
2023/01/01 06:16:41;;;;;;;;;;;;;;;8.08;100.00;96917.63;5074290;28;19989;-75
2023/01/01 06:19:07;;;;;;;;;;;;;;;8.10;100.00;96911.22;5073053;28;20061;-75
2023/01/01 06:21:33;;;;;;;;;;;;;;;8.13;100.00;96918.69;5074387;28;19955;-74
2023/01/01 06:24:02;;;;;;;;;;;;;;;8.11;100.00;96919.88;5084336;28;19961;-74
2023/01/01 06:26:29;;;;;;;;;;;;;;;8.06;100.00;96922.25;5074351;28;19967;-74
2023/01/01 06:28:55;;;;;;;;;;;;;;;8.01;100.00;96925.44;5072984;28;19972;-75
2023/01/01 06:31:21;;;;;;;;;;;;;;;8.00;100.00;96920.38;5073989;28;20002;-74
2023/01/01 06:33:47;;;;;;;;;;;;;;;7.96;100.00;96917.38;5072903;28;20399;-75
2023/01/01 06:36:14;;;;;;;;;;;;;;;7.92;100.00;96916.13;5072940;28;19953;-75
2023/01/01 06:38:41;;;;;;;;;;;;;;;7.90;100.00;96928.56;5055614;28;20420;-75
2023/01/01 06:41:10;;;;;;;;;;;;;;;7.88;100.00;96920.91;5074228;28;20307;-75
2023/01/01 06:43:36;;;;;;;;;;;;;;;7.86;100.00;96924.72;5074558;28;19955;-75
2023/01/01 06:46:02;;;;;;;;;;;;;;;7.85;100.00;96925.72;5073939;28;19955;-75
2023/01/01 06:48:29;;;;;;;;;;;;;;;7.81;100.00;96924.47;5077015;28;19957;-75
2023/01/01 06:50:55;;;;;;;;;;;;;;;7.79;100.00;96924.66;5073647;28;19954;-74
2023/01/01 06:53:25;;;;;;;;;;;;;;;7.78;100.00;96930.06;5054836;28;19950;-75
2023/01/01 06:55:51;;;;;;;;;;;;;;;7.75;100.00;96926.03;5073125;28;19953;-75
2023/01/01 06:58:17;;;;;;;;;;;;;;;7.73;100.00;96935.88;5085240;28;20462;-75
2023/01/01 07:00:43;;;;;;;;;;;;;;;7.72;100.00;96923.78;5083083;28;19947;-75
2023/01/01 07:03:09;;;;;;;;;;;;;;;7.71;100.00;96927.41;5082519;28;19959;-75
2023/01/01 07:05:35;;;;;;;;;;;;;;;7.72;100.00;96929.00;5072556;28;19956;-76
2023/01/01 07:08:01;;;;;;;;;;;;;;;7.74;100.00;96932.25;5073102;28;20008;-75
2023/01/01 07:10:27;;;;;;;;;;;;;;;7.76;100.00;96930.25;5072117;28;19972;-75
2023/01/01 07:12:52;;;;;;;;;;;;;;;7.77;100.00;96934.50;5073541;28;19949;-75
2023/01/01 07:15:18;;;;;;;;;;;;;;;7.76;100.00;96932.88;5072173;28;20394;-75
2023/01/01 07:17:44;;;;;;;;;;;;;;;7.72;100.00;96936.84;5076089;28;20010;-75
2023/01/01 07:20:10;;;;;;;;;;;;;;;7.69;100.00;96945.06;5072501;28;19957;-75
2023/01/01 07:22:37;;;;;;;;;;;;;;;7.66;100.00;96946.22;5074052;28;19988;-75
2023/01/01 07:25:03;;;;;;;;;;;;;;;7.64;100.00;96943.03;5071136;28;19952;-75
2023/01/01 07:27:29;;;;;;;;;;;;;;;7.61;100.00;96951.22;5074950;28;19954;-75
2023/01/01 07:29:55;;;;;;;;;;;;;;;7.63;100.00;96953.63;5073225;28;19978;-76
2023/01/01 07:32:20;;;;;;;;;;;;;;;7.64;100.00;96950.84;5071599;28;19970;-75
2023/01/01 07:34:46;;;;;;;;;;;;;;;7.66;100.00;96946.22;5055476;28;19952;-76
2023/01/01 07:37:12;;;;;;;;;;;;;;;7.71;100.00;96943.88;5071923;28;20420;-75
2023/01/01 07:39:38;;;;;;;;;;;;;;;7.77;100.00;96951.94;5073252;28;20394;-75
2023/01/01 07:42:04;;;;;;;;;;;;;;;7.80;100.00;96951.59;5056366;28;19958;-74
2023/01/01 07:44:30;;;;;;;;;;;;;;;7.83;100.00;96946.81;5073403;28;20046;-75
2023/01/01 07:47:12;;;;;;;;;;;;;;;7.86;100.00;96946.41;5070966;28;20443;-74
2023/01/01 07:49:38;;;;;;;;;;;;;;;7.86;100.00;96953.44;5075213;28;19967;-75
2023/01/01 07:52:04;;;;;;;;;;;;;;;7.85;100.00;96950.03;5076999;28;20324;-74
2023/01/01 07:54:30;;;;;;;;;;;;;;;7.85;100.00;96964.88;5075875;28;19956;-75
2023/01/01 07:56:56;;;;;;;;;;;;;;;7.85;100.00;96970.94;5064488;28;19996;-75
2023/01/01 07:59:22;;;;;;;;;;;;;;;7.83;100.00;96972.91;5076728;28;19958;-75
2023/01/01 08:01:47;;;;;;;;;;;;;;;7.85;100.00;96980.53;5059172;28;19956;-75
2023/01/01 08:04:13;;;;;;;;;;;;;;;7.85;100.00;96986.59;5079717;28;19957;-75
2023/01/01 08:06:39;;;;;;;;;;;;;;;7.89;100.00;97002.69;5080697;28;19954;-74
2023/01/01 08:09:05;;;;;;;;;;;;;;;7.91;100.00;97008.53;5076839;28;20379;-75
2023/01/01 08:11:31;;;;;;;;;;;;;;;7.94;100.00;97010.78;5078496;28;19989;-75
2023/01/01 08:13:57;;;;;;;;;;;;;;;8.01;100.00;97010.81;5088167;28;19966;-74
2023/01/01 08:16:23;;;;;;;;;;;;;;;8.09;100.00;97008.91;5079915;28;20009;-75
2023/01/01 08:18:48;;;;;;;;;;;;;;;8.14;100.00;97006.50;5076576;28;19988;-75
2023/01/01 08:21:14;;;;;;;;;;;;;;;8.19;100.00;97005.13;5075672;28;19985;-75
2023/01/01 08:23:40;;;;;;;;;;;;;;;8.25;100.00;97007.81;5076293;28;20404;-75
2023/01/01 08:26:06;;;;;;;;;;;;;;;8.31;100.00;97009.66;5076365;28;20047;-75
2023/01/01 08:28:32;;;;;;;;;;;;;;;8.40;100.00;97014.75;5076319;28;20390;-75
2023/01/01 08:30:59;;;;;;;;;;;;;;;8.47;100.00;97020.88;5080727;28;20328;-75
2023/01/01 08:33:25;;;;;;;;;;;;;;;8.52;100.00;97016.72;5074140;28;19961;-75
2023/01/01 08:35:51;;;;;;;;;;;;;;;8.64;100.00;97026.63;5076203;28;20333;-74
2023/01/01 08:38:17;;;;;;;;;;;;;;;8.75;100.00;97020.84;5076139;28;19985;-75
2023/01/01 08:40:43;;;;;;;;;;;;;;;8.83;100.00;97019.91;5081419;28;19987;-75
2023/01/01 08:43:08;;;;;;;;;;;;;;;8.96;100.00;97021.78;5075943;28;19999;-75
2023/01/01 08:45:34;;;;;;;;;;;;;;;9.14;100.00;97022.09;5075242;28;19977;-76
2023/01/01 08:48:00;;;;;;;;;;;;;;;9.32;100.00;97027.63;5074835;28;20003;-75
2023/01/01 08:50:26;;;;;;;;;;;;;;;9.51;100.00;97020.00;5077629;28;20012;-77
2023/01/01 08:52:52;;;;;;;;;;;;;;;9.69;100.00;97027.31;5075890;28;20006;-75
2023/01/01 08:55:18;;;;;;;;;;;;;;;9.86;97.99;97018.06;5075373;28;19960;-75
2023/01/01 08:57:44;;;;;;;;;;;;;;;10.03;98.47;97023.75;5075335;28;19997;-74
2023/01/01 09:00:10;;;;;;;;;;;;;;;10.19;96.36;97009.47;5079235;28;19958;-77
2023/01/01 09:02:36;;;;;;;;;;;;;;;10.34;95.11;97009.28;5077945;28;19959;-75
2023/01/01 09:05:02;;;;;;;;;;;;;;;10.48;94.97;97016.13;5080800;28;20061;-75
2023/01/01 09:07:28;;;;;;;;;;;;;;;10.59;93.59;97001.59;5078832;28;20030;-76
2023/01/01 09:09:53;;;;;;;;;;;;;;;10.76;93.70;97012.47;5081305;28;20350;-74
2023/01/01 09:12:19;;;;;;;;;;;;;;;10.88;93.02;97007.41;5078478;28;20005;-74
2023/01/01 09:14:46;;;;;;;;;;;;;;;10.98;92.40;97002.50;5086676;28;19993;-75
2023/01/01 09:17:11;;;;;;;;;;;;;;;11.11;94.33;96999.88;5074873;28;20323;-75
2023/01/01 09:19:37;;;;;;;;;;;;;;;11.24;94.35;97008.72;5084339;28;20005;-75
2023/01/01 09:22:03;;;;;;;;;;;;;;;11.25;91.64;96995.34;5074414;28;20417;-75
2023/01/01 09:24:29;;;;;;;;;;;;;;;11.21;90.85;96981.03;5077138;28;20005;-75
2023/01/01 09:26:55;;;;;;;;;;;;;;;11.24;91.72;96991.13;5075026;28;20118;-75
2023/01/01 09:29:21;;;;;;;;;;;;;;;11.27;92.82;96990.69;5080265;28;20405;-76
2023/01/01 09:31:47;;;;;;;;;;;;;;;11.28;91.74;96984.44;5074837;28;20002;-76
2023/01/01 09:34:13;;;;;;;;;;;;;;;11.29;89.83;96974.75;5074125;28;19951;-75
2023/01/01 09:36:39;;;;;;;;;;;;;;;11.26;90.65;96985.69;5074969;28;19974;-76
2023/01/01 09:39:05;;;;;;;;;;;;;;;11.21;92.66;96993.34;5074887;28;19970;-75
2023/01/01 09:41:36;;;;;;;;;;;;;;;11.22;93.03;96987.91;5056067;28;19960;-75
2023/01/01 09:44:29;;;;;;;;;;;;;;;11.29;93.66;96996.56;5083924;28;19963;-75
2023/01/01 09:46:58;;;;;;;;;;;;;;;11.29;92.44;96986.03;5031313;28;19961;-75
2023/01/01 09:49:36;;;;;;;;;;;;;;;11.29;92.56;96993.13;5078001;28;20332;-76
2023/01/01 09:52:04;;;;;;;;;;;;;;;11.25;93.02;97008.47;5074562;28;19949;-75
2023/01/01 09:54:36;;;;;;;;;;;;;;;11.25;93.05;96997.97;5072362;28;19951;-76
2023/01/01 09:57:05;;;;;;;;;;;;;;;11.39;93.37;96998.75;5074312;28;19953;-76
2023/01/01 09:59:31;;;;;;;;;;;;;;;11.53;91.35;96987.16;5074627;28;19953;-76
2023/01/01 10:02:00;;;;;;;;;;;;;;;11.71;91.92;96990.88;5074435;28;19955;-76
2023/01/01 10:04:40;;;;;;;;;;;;;;;11.85;92.25;96999.50;5074243;28;19949;-79
2023/01/01 10:07:06;;;;;;;;;;;;;;;12.03;90.76;96985.66;5069387;28;19953;-76
2023/01/01 10:09:50;;;;;;;;;;;;;;;12.11;89.30;96974.88;5074336;28;20012;-76
2023/01/01 10:12:16;;;;;;;;;;;;;;;12.21;89.75;96974.41;5064285;28;19953;-77
2023/01/01 10:14:48;;;;;;;;;;;;;;;12.22;89.25;96974.22;5074235;28;20435;-76
2023/01/01 10:17:13;;;;;;;;;;;;;;;12.25;89.54;96975.59;5074481;28;20306;-77
2023/01/01 10:19:42;;;;;;;;;;;;;;;12.28;87.32;96948.84;5074224;28;19961;-75
2023/01/01 10:22:21;;;;;;;;;;;;;;;12.35;87.84;96953.03;5074214;28;19945;-75
2023/01/01 10:24:59;;;;;;;;;;;;;;;12.40;87.55;96952.38;5072856;28;19957;-80
2023/01/01 10:27:34;;;;;;;;;;;;;;;12.43;87.93;96954.59;5072161;28;19950;-77
2023/01/01 10:30:01;;;;;;;;;;;;;;;12.50;89.43;96963.22;5071625;28;19972;-77
2023/01/01 10:32:31;;;;;;;;;;;;;;;12.50;88.10;96951.91;5074790;28;19948;-77
2023/01/01 10:34:58;;;;;;;;;;;;;;;12.51;88.80;96961.38;5073996;28;20390;-75
2023/01/01 10:37:34;;;;;;;;;;;;;;;12.56;88.34;96956.28;5074358;28;20318;-76
2023/01/01 10:40:02;;;;;;;;;;;;;;;12.68;89.08;96965.09;5073081;28;19955;-75
2023/01/01 10:42:28;;;;;;;;;;;;;;;12.76;87.16;96945.53;5073059;28;19961;-75
2023/01/01 10:44:54;;;;;;;;;;;;;;;12.85;86.10;96927.63;5072646;28;19958;-76
2023/01/01 10:47:24;;;;;;;;;;;;;;;12.93;86.76;96932.59;5081260;28;19965;-76
2023/01/01 10:50:01;;;;;;;;;;;;;;;12.96;87.80;96943.50;5073348;28;19969;-76
2023/01/01 10:52:30;;;;;;;;;;;;;;;13.03;85.18;96935.53;5080890;28;19958;-76
2023/01/01 10:54:57;;;;;;;;;;;;;;;13.07;85.82;96938.53;5085391;28;19955;-75
2023/01/01 10:57:26;;;;;;;;;;;;;;;13.08;86.03;96935.69;5073953;28;19962;-75
2023/01/01 10:59:52;;;;;;;;;;;;;;;13.18;86.70;96948.31;5082422;28;19966;-76
2023/01/01 11:02:22;;;;;;;;;;;;;;;13.29;84.19;96925.69;5072423;28;20326;-75
2023/01/01 11:04:49;;;;;;;;;;;;;;;13.36;85.01;96936.97;5077212;28;19951;-75
2023/01/01 11:07:35;;;;;;;;;;;;;;;13.34;81.45;96900.31;5080966;28;19973;-75
2023/01/01 11:10:03;;;;;;;;;;;;;;;13.43;84.66;96928.97;5082038;28;20440;-76
2023/01/01 11:12:33;;;;;;;;;;;;;;;13.46;82.73;96908.25;5079253;28;19952;-76
2023/01/01 11:14:59;;;;;;;;;;;;;;;13.48;81.69;96900.94;5088766;28;19956;-76
2023/01/01 11:17:29;;;;;;;;;;;;;;;13.53;82.16;96906.31;5079912;28;19958;-76
2023/01/01 11:19:56;;;;;;;;;;;;;;;13.58;83.01;96908.28;5082908;28;19952;-75
2023/01/01 11:22:37;;;;;;;;;;;;;;;13.69;83.36;96912.78;5074045;28;19960;-75
2023/01/01 11:25:14;;;;;;;;;;;;;;;13.79;81.25;96889.28;5076003;28;19951;-77
2023/01/01 11:27:40;;;;;;;;;;;;;;;13.89;80.97;96885.31;5075694;28;19956;-75
2023/01/01 11:30:18;;;;;;;;;;;;;;;13.95;81.77;96879.13;5084809;28;19977;-76
2023/01/01 11:32:44;;;;;;;;;;;;;;;13.98;81.89;96876.84;5077054;28;19955;-76
2023/01/01 11:35:16;;;;;;;;;;;;;;;14.04;82.48;96876.94;5077187;28;19956;-75
2023/01/01 11:37:43;;;;;;;;;;;;;;;14.05;78.80;96845.06;5076803;28;19978;-75
2023/01/01 11:40:21;;;;;;;;;;;;;;;14.04;79.41;96835.53;5061272;28;19957;-75
2023/01/01 11:42:49;;;;;;;;;;;;;;;14.10;81.25;96852.28;5070471;28;19959;-75
2023/01/01 11:45:20;;;;;;;;;;;;;;;14.15;81.86;96840.03;5077346;28;19959;-75
2023/01/01 11:47:50;;;;;;;;;;;;;;;14.23;81.24;96830.94;5077044;28;20301;-75
2023/01/01 11:50:28;;;;;;;;;;;;;;;14.27;79.62;96815.47;5077044;28;19962;-76
2023/01/01 11:52:57;;;;;;;;;;;;;;;14.26;78.04;96793.56;5063402;28;19950;-76
2023/01/01 11:55:25;;;;;;;;;;;;;;;14.25;80.57;96818.31;5077215;28;19957;-75
2023/01/01 11:58:17;;;;;;;;;;;;;;;14.21;79.43;96806.63;5076824;28;19958;-75
2023/01/01 12:00:44;;;;;;;;;;;;;;;14.18;77.77;96805.25;5073723;28;19944;-75
2023/01/01 12:03:29;;;;;;;;;;;;;;;14.19;79.04;96813.97;5076923;28;19962;-75
2023/01/01 12:06:00;;;;;;;;;;;;;;;14.17;78.46;96803.69;5076064;28;19950;-75
2023/01/01 12:08:30;;;;;;;;;;;;;;;14.18;77.87;96788.66;5076688;28;19959;-75
2023/01/01 12:11:05;;;;;;;;;;;;;;;14.18;77.29;96791.28;5076815;28;19970;-76
2023/01/01 12:13:33;;;;;;;;;;;;;;;14.16;78.31;96799.41;5076561;28;19949;-77
2023/01/01 12:16:02;;;;;;;;;;;;;;;14.19;77.45;96787.59;5076852;28;19974;-76
2023/01/01 12:18:34;;;;;;;;;;;;;;;14.24;80.97;96816.75;5076407;28;19953;-76
2023/01/01 12:21:04;;;;;;;;;;;;;;;14.33;80.09;96809.25;5076678;28;19951;-76
2023/01/01 12:23:30;;;;;;;;;;;;;;;14.37;78.52;96790.09;5076547;28;19947;-76
2023/01/01 12:25:56;;;;;;;;;;;;;;;14.41;79.65;96801.78;5076358;28;19955;-76
2023/01/01 12:28:25;;;;;;;;;;;;;;;14.45;77.97;96785.47;5076321;28;19963;-76
2023/01/01 12:30:57;;;;;;;;;;;;;;;14.49;78.98;96790.06;5076271;28;19984;-76
2023/01/01 12:33:26;;;;;;;;;;;;;;;14.50;77.77;96775.81;5076124;28;20432;-76
2023/01/01 12:35:52;;;;;;;;;;;;;;;14.51;76.80;96768.69;5076402;28;19953;-76
2023/01/01 12:38:20;;;;;;;;;;;;;;;14.49;74.37;96739.94;5075927;28;19971;-77
2023/01/01 12:40:52;;;;;;;;;;;;;;;14.51;76.25;96750.22;5076118;28;19982;-77
2023/01/01 12:43:34;;;;;;;;;;;;;;;14.54;75.21;96741.84;5061043;28;20451;-76
2023/01/01 12:46:06;;;;;;;;;;;;;;;14.57;74.69;96725.56;5075986;28;19965;-76
2023/01/01 12:48:51;;;;;;;;;;;;;;;14.61;75.04;96730.16;5075953;28;19949;-76
2023/01/01 12:51:24;;;;;;;;;;;;;;;14.66;74.95;96731.25;5075861;28;19968;-76
2023/01/01 12:53:53;;;;;;;;;;;;;;;14.71;73.80;96715.53;5076100;28;19952;-76
2023/01/01 12:56:19;;;;;;;;;;;;;;;14.75;72.97;96706.88;5075901;28;19960;-76
2023/01/01 12:58:50;;;;;;;;;;;;;;;14.77;72.58;96715.38;5075498;28;19952;-76